sensor_id;sensor_type;location;lat;lon;timestamp;temperature;humidity
14079;DHT22;7115;50.150;8.568;2023-07-31T00:01:56;19.20;99.90
14079;DHT22;7115;50.150;8.568;2023-07-31T00:04:23;19.20;99.90
14079;DHT22;7115;50.150;8.568;2023-07-31T00:06:50;19.10;99.90
14079;DHT22;7115;50.150;8.568;2023-07-31T00:09:17;19.10;99.90
14079;DHT22;7115;50.150;8.568;2023-07-31T00:11:45;19.10;99.90
14079;DHT22;7115;50.150;8.568;2023-07-31T00:14:12;19.10;99.90
14079;DHT22;7115;50.150;8.568;2023-07-31T00:16:39;19.00;99.90
14079;DHT22;7115;50.150;8.568;2023-07-31T00:19:06;19.00;99.90
14079;DHT22;7115;50.150;8.568;2023-07-31T00:21:33;19.00;99.90
14079;DHT22;7115;50.150;8.568;2023-07-31T00:24:00;19.00;99.90
14079;DHT22;7115;50.150;8.568;2023-07-31T00:26:27;19.00;99.90
14079;DHT22;7115;50.150;8.568;2023-07-31T00:28:55;19.00;99.90
14079;DHT22;7115;50.150;8.568;2023-07-31T00:31:22;19.00;99.90
14079;DHT22;7115;50.150;8.568;2023-07-31T00:33:49;19.00;99.90
14079;DHT22;7115;50.150;8.568;2023-07-31T00:36:15;19.00;99.90
14079;DHT22;7115;50.150;8.568;2023-07-31T00:38:44;18.90;99.90
14079;DHT22;7115;50.150;8.568;2023-07-31T00:41:11;18.90;99.90
14079;DHT22;7115;50.150;8.568;2023-07-31T00:43:38;18.80;99.90
14079;DHT22;7115;50.150;8.568;2023-07-31T00:46:06;18.80;99.90
14079;DHT22;7115;50.150;8.568;2023-07-31T00:48:34;18.80;99.90
14079;DHT22;7115;50.150;8.568;2023-07-31T00:51:01;18.80;99.90
14079;DHT22;7115;50.150;8.568;2023-07-31T00:53:28;18.80;99.90
14079;DHT22;7115;50.150;8.568;2023-07-31T00:55:56;18.80;99.90
14079;DHT22;7115;50.150;8.568;2023-07-31T00:58:23;18.80;99.90
14079;DHT22;7115;50.150;8.568;2023-07-31T01:00:49;18.80;99.90
14079;DHT22;7115;50.150;8.568;2023-07-31T01:03:18;18.90;99.90
14079;DHT22;7115;50.150;8.568;2023-07-31T01:05:52;18.80;99.90
14079;DHT22;7115;50.150;8.568;2023-07-31T01:08:27;18.90;99.90
14079;DHT22;7115;50.150;8.568;2023-07-31T01:10:59;18.90;99.90
14079;DHT22;7115;50.150;8.568;2023-07-31T01:13:28;18.90;99.90
14079;DHT22;7115;50.150;8.568;2023-07-31T01:15:55;18.90;99.90
14079;DHT22;7115;50.150;8.568;2023-07-31T01:18:23;18.90;99.90
14079;DHT22;7115;50.150;8.568;2023-07-31T01:20:54;18.80;99.90
14079;DHT22;7115;50.150;8.568;2023-07-31T01:23:37;18.70;99.90
14079;DHT22;7115;50.150;8.568;2023-07-31T01:26:12;18.60;99.90
14079;DHT22;7115;50.150;8.568;2023-07-31T01:28:46;18.50;99.90
14079;DHT22;7115;50.150;8.568;2023-07-31T01:31:17;18.50;99.90
14079;DHT22;7115;50.150;8.568;2023-07-31T01:33:45;18.40;99.90
14079;DHT22;7115;50.150;8.568;2023-07-31T01:36:12;18.40;99.90
14079;DHT22;7115;50.150;8.568;2023-07-31T01:38:40;18.40;99.90
14079;DHT22;7115;50.150;8.568;2023-07-31T01:41:07;18.50;99.90
14079;DHT22;7115;50.150;8.568;2023-07-31T01:43:35;18.50;99.90
14079;DHT22;7115;50.150;8.568;2023-07-31T01:46:01;18.60;99.90
14079;DHT22;7115;50.150;8.568;2023-07-31T01:48:28;18.60;99.90
14079;DHT22;7115;50.150;8.568;2023-07-31T01:50:55;18.60;99.90
14079;DHT22;7115;50.150;8.568;2023-07-31T01:53:22;18.70;99.90
14079;DHT22;7115;50.150;8.568;2023-07-31T01:55:49;18.70;99.90
14079;DHT22;7115;50.150;8.568;2023-07-31T01:58:16;18.70;99.90
14079;DHT22;7115;50.150;8.568;2023-07-31T02:00:44;18.60;99.90
14079;DHT22;7115;50.150;8.568;2023-07-31T02:03:11;18.60;99.90
14079;DHT22;7115;50.150;8.568;2023-07-31T02:05:44;18.50;99.90
14079;DHT22;7115;50.150;8.568;2023-07-31T02:08:10;18.50;99.90
14079;DHT22;7115;50.150;8.568;2023-07-31T02:10:37;18.50;99.90
14079;DHT22;7115;50.150;8.568;2023-07-31T02:13:04;18.40;99.90
14079;DHT22;7115;50.150;8.568;2023-07-31T02:15:31;18.40;99.90
14079;DHT22;7115;50.150;8.568;2023-07-31T02:17:59;18.40;99.90
14079;DHT22;7115;50.150;8.568;2023-07-31T02:20:26;18.40;99.90
14079;DHT22;7115;50.150;8.568;2023-07-31T02:22:53;18.50;99.90
14079;DHT22;7115;50.150;8.568;2023-07-31T02:25:20;18.60;99.90
14079;DHT22;7115;50.150;8.568;2023-07-31T02:27:47;18.60;99.90
14079;DHT22;7115;50.150;8.568;2023-07-31T02:30:14;18.70;99.90
14079;DHT22;7115;50.150;8.568;2023-07-31T02:32:40;18.70;99.90
14079;DHT22;7115;50.150;8.568;2023-07-31T02:35:09;18.70;99.90
14079;DHT22;7115;50.150;8.568;2023-07-31T02:37:36;18.70;99.90
14079;DHT22;7115;50.150;8.568;2023-07-31T02:40:04;18.80;99.90
14079;DHT22;7115;50.150;8.568;2023-07-31T02:42:30;18.80;99.90
14079;DHT22;7115;50.150;8.568;2023-07-31T02:44:57;18.80;99.90
14079;DHT22;7115;50.150;8.568;2023-07-31T02:47:24;18.90;99.90
14079;DHT22;7115;50.150;8.568;2023-07-31T02:49:51;18.90;99.90
14079;DHT22;7115;50.150;8.568;2023-07-31T02:52:19;18.90;99.90
14079;DHT22;7115;50.150;8.568;2023-07-31T02:54:46;18.90;99.90
14079;DHT22;7115;50.150;8.568;2023-07-31T02:57:13;18.90;99.90
14079;DHT22;7115;50.150;8.568;2023-07-31T02:59:40;18.90;99.90
14079;DHT22;7115;50.150;8.568;2023-07-31T03:02:07;18.90;99.90
14079;DHT22;7115;50.150;8.568;2023-07-31T03:04:33;18.90;99.90
14079;DHT22;7115;50.150;8.568;2023-07-31T03:07:00;18.90;99.90
14079;DHT22;7115;50.150;8.568;2023-07-31T03:09:29;18.80;99.90
14079;DHT22;7115;50.150;8.568;2023-07-31T03:11:55;18.70;99.90
14079;DHT22;7115;50.150;8.568;2023-07-31T03:14:22;18.70;99.90
14079;DHT22;7115;50.150;8.568;2023-07-31T03:16:49;18.60;99.90
14079;DHT22;7115;50.150;8.568;2023-07-31T03:19:16;18.60;99.90
14079;DHT22;7115;50.150;8.568;2023-07-31T03:21:43;18.50;99.90
14079;DHT22;7115;50.150;8.568;2023-07-31T03:24:10;18.50;99.90
14079;DHT22;7115;50.150;8.568;2023-07-31T03:26:40;18.50;99.90
14079;DHT22;7115;50.150;8.568;2023-07-31T03:29:08;18.40;99.90
14079;DHT22;7115;50.150;8.568;2023-07-31T03:31:35;18.40;99.90
14079;DHT22;7115;50.150;8.568;2023-07-31T03:34:02;18.50;99.90
14079;DHT22;7115;50.150;8.568;2023-07-31T03:36:29;18.40;99.90
14079;DHT22;7115;50.150;8.568;2023-07-31T03:38:56;18.40;99.90
14079;DHT22;7115;50.150;8.568;2023-07-31T03:41:22;18.40;99.90
14079;DHT22;7115;50.150;8.568;2023-07-31T03:43:51;18.40;99.90
14079;DHT22;7115;50.150;8.568;2023-07-31T03:46:22;18.40;99.90
14079;DHT22;7115;50.150;8.568;2023-07-31T03:48:50;18.40;99.90
14079;DHT22;7115;50.150;8.568;2023-07-31T03:51:16;18.40;99.90
14079;DHT22;7115;50.150;8.568;2023-07-31T03:53:44;18.50;99.90
14079;DHT22;7115;50.150;8.568;2023-07-31T03:56:11;18.50;99.90
14079;DHT22;7115;50.150;8.568;2023-07-31T03:58:38;18.50;99.90
14079;DHT22;7115;50.150;8.568;2023-07-31T04:01:06;18.50;99.90
14079;DHT22;7115;50.150;8.568;2023-07-31T04:03:33;18.50;99.90
14079;DHT22;7115;50.150;8.568;2023-07-31T04:06:00;18.50;99.90
14079;DHT22;7115;50.150;8.568;2023-07-31T04:08:26;18.50;99.90
14079;DHT22;7115;50.150;8.568;2023-07-31T04:10:53;18.50;99.90
14079;DHT22;7115;50.150;8.568;2023-07-31T04:13:22;18.30;99.90
14079;DHT22;7115;50.150;8.568;2023-07-31T04:15:49;18.50;99.90
14079;DHT22;7115;50.150;8.568;2023-07-31T04:18:18;18.50;99.90
14079;DHT22;7115;50.150;8.568;2023-07-31T04:20:46;18.50;99.90
14079;DHT22;7115;50.150;8.568;2023-07-31T04:23:13;18.50;99.90
14079;DHT22;7115;50.150;8.568;2023-07-31T04:25:40;18.50;99.90
14079;DHT22;7115;50.150;8.568;2023-07-31T04:28:07;18.50;99.90
14079;DHT22;7115;50.150;8.568;2023-07-31T04:30:34;18.50;99.90
14079;DHT22;7115;50.150;8.568;2023-07-31T04:33:01;18.50;99.90
14079;DHT22;7115;50.150;8.568;2023-07-31T04:35:29;18.50;99.90
14079;DHT22;7115;50.150;8.568;2023-07-31T04:37:56;18.50;99.90
14079;DHT22;7115;50.150;8.568;2023-07-31T04:40:23;18.50;99.90
14079;DHT22;7115;50.150;8.568;2023-07-31T04:42:50;18.50;99.90
14079;DHT22;7115;50.150;8.568;2023-07-31T04:45:17;18.50;99.90
14079;DHT22;7115;50.150;8.568;2023-07-31T04:47:44;18.60;99.90
14079;DHT22;7115;50.150;8.568;2023-07-31T04:50:11;18.60;99.90
14079;DHT22;7115;50.150;8.568;2023-07-31T04:52:39;18.60;99.90
14079;DHT22;7115;50.150;8.568;2023-07-31T04:55:06;18.60;99.90
14079;DHT22;7115;50.150;8.568;2023-07-31T04:57:33;18.60;99.90
14079;DHT22;7115;50.150;8.568;2023-07-31T05:00:01;18.60;99.90
14079;DHT22;7115;50.150;8.568;2023-07-31T05:02:28;18.60;99.90
14079;DHT22;7115;50.150;8.568;2023-07-31T05:04:55;18.60;99.90
14079;DHT22;7115;50.150;8.568;2023-07-31T05:07:21;18.60;99.90
14079;DHT22;7115;50.150;8.568;2023-07-31T05:09:49;18.60;99.90
14079;DHT22;7115;50.150;8.568;2023-07-31T05:12:16;18.60;99.90
14079;DHT22;7115;50.150;8.568;2023-07-31T05:14:43;18.60;99.90
14079;DHT22;7115;50.150;8.568;2023-07-31T05:17:10;18.60;99.90
14079;DHT22;7115;50.150;8.568;2023-07-31T05:19:37;18.60;99.90
14079;DHT22;7115;50.150;8.568;2023-07-31T05:22:04;18.60;99.90
14079;DHT22;7115;50.150;8.568;2023-07-31T05:24:31;18.60;99.90
14079;DHT22;7115;50.150;8.568;2023-07-31T05:27:00;18.60;99.90
14079;DHT22;7115;50.150;8.568;2023-07-31T05:29:26;18.60;99.90
14079;DHT22;7115;50.150;8.568;2023-07-31T05:31:55;18.50;99.90
14079;DHT22;7115;50.150;8.568;2023-07-31T05:34:22;18.50;99.90
14079;DHT22;7115;50.150;8.568;2023-07-31T05:36:49;18.50;99.90
14079;DHT22;7115;50.150;8.568;2023-07-31T05:39:16;18.50;99.90
14079;DHT22;7115;50.150;8.568;2023-07-31T05:41:43;18.50;99.90
14079;DHT22;7115;50.150;8.568;2023-07-31T05:44:11;18.50;99.90
14079;DHT22;7115;50.150;8.568;2023-07-31T05:46:38;18.40;99.90
14079;DHT22;7115;50.150;8.568;2023-07-31T05:49:05;18.40;99.90
14079;DHT22;7115;50.150;8.568;2023-07-31T05:51:32;18.40;99.90
14079;DHT22;7115;50.150;8.568;2023-07-31T05:53:59;18.40;99.90
14079;DHT22;7115;50.150;8.568;2023-07-31T05:56:26;18.40;99.90
14079;DHT22;7115;50.150;8.568;2023-07-31T05:58:53;18.40;99.90
14079;DHT22;7115;50.150;8.568;2023-07-31T06:01:22;18.50;99.90
14079;DHT22;7115;50.150;8.568;2023-07-31T06:03:48;18.50;99.90
14079;DHT22;7115;50.150;8.568;2023-07-31T06:06:15;18.50;99.90
14079;DHT22;7115;50.150;8.568;2023-07-31T06:08:42;18.60;99.90
14079;DHT22;7115;50.150;8.568;2023-07-31T06:11:09;18.60;99.90
14079;DHT22;7115;50.150;8.568;2023-07-31T06:13:36;18.60;99.90
14079;DHT22;7115;50.150;8.568;2023-07-31T06:16:03;18.70;99.90
14079;DHT22;7115;50.150;8.568;2023-07-31T06:18:34;18.70;99.90
14079;DHT22;7115;50.150;8.568;2023-07-31T06:21:01;18.80;99.90
14079;DHT22;7115;50.150;8.568;2023-07-31T06:23:28;18.80;99.90
14079;DHT22;7115;50.150;8.568;2023-07-31T06:25:54;18.80;99.90
14079;DHT22;7115;50.150;8.568;2023-07-31T06:28:25;18.80;99.90
14079;DHT22;7115;50.150;8.568;2023-07-31T06:30:53;18.80;99.90
14079;DHT22;7115;50.150;8.568;2023-07-31T06:33:20;18.80;99.90
14079;DHT22;7115;50.150;8.568;2023-07-31T06:35:48;18.80;99.90
14079;DHT22;7115;50.150;8.568;2023-07-31T06:38:15;18.90;99.90
14079;DHT22;7115;50.150;8.568;2023-07-31T06:40:42;18.90;99.90
14079;DHT22;7115;50.150;8.568;2023-07-31T06:43:09;19.00;99.90
14079;DHT22;7115;50.150;8.568;2023-07-31T06:45:36;18.90;99.90
14079;DHT22;7115;50.150;8.568;2023-07-31T06:48:04;19.00;99.90
14079;DHT22;7115;50.150;8.568;2023-07-31T06:50:31;18.90;99.90
14079;DHT22;7115;50.150;8.568;2023-07-31T06:52:59;18.90;99.90
14079;DHT22;7115;50.150;8.568;2023-07-31T06:55:26;18.90;99.90
14079;DHT22;7115;50.150;8.568;2023-07-31T06:57:55;18.90;99.90
14079;DHT22;7115;50.150;8.568;2023-07-31T07:00:22;18.90;99.90
14079;DHT22;7115;50.150;8.568;2023-07-31T07:02:50;18.90;99.90
14079;DHT22;7115;50.150;8.568;2023-07-31T07:05:17;18.90;99.90
14079;DHT22;7115;50.150;8.568;2023-07-31T07:07:45;19.00;99.90
14079;DHT22;7115;50.150;8.568;2023-07-31T07:10:13;19.00;99.90
14079;DHT22;7115;50.150;8.568;2023-07-31T07:12:40;19.00;99.90
14079;DHT22;7115;50.150;8.568;2023-07-31T07:15:08;19.00;99.90
14079;DHT22;7115;50.150;8.568;2023-07-31T07:17:35;19.00;99.90
14079;DHT22;7115;50.150;8.568;2023-07-31T07:20:02;19.10;99.90
14079;DHT22;7115;50.150;8.568;2023-07-31T07:22:30;19.20;99.90
14079;DHT22;7115;50.150;8.568;2023-07-31T07:24:59;19.20;99.90
14079;DHT22;7115;50.150;8.568;2023-07-31T07:27:27;19.30;99.90
14079;DHT22;7115;50.150;8.568;2023-07-31T07:29:54;19.30;99.90
14079;DHT22;7115;50.150;8.568;2023-07-31T07:32:21;19.40;99.90
14079;DHT22;7115;50.150;8.568;2023-07-31T07:34:49;19.40;99.90
14079;DHT22;7115;50.150;8.568;2023-07-31T07:37:15;19.50;99.90
14079;DHT22;7115;50.150;8.568;2023-07-31T07:39:43;19.50;99.90
14079;DHT22;7115;50.150;8.568;2023-07-31T07:42:10;19.60;99.90
14079;DHT22;7115;50.150;8.568;2023-07-31T07:44:38;19.60;99.90
14079;DHT22;7115;50.150;8.568;2023-07-31T07:47:05;19.70;99.90
14079;DHT22;7115;50.150;8.568;2023-07-31T07:53:13;19.80;99.90
14079;DHT22;7115;50.150;8.568;2023-07-31T09:01:29;21.00;99.90
14079;DHT22;7115;50.150;8.568;2023-07-31T09:03:59;20.90;99.90
14079;DHT22;7115;50.150;8.568;2023-07-31T09:06:28;20.90;99.90
14079;DHT22;7115;50.150;8.568;2023-07-31T09:08:56;20.90;99.90
14079;DHT22;7115;50.150;8.568;2023-07-31T09:11:24;20.90;99.90
14079;DHT22;7115;50.150;8.568;2023-07-31T09:13:52;20.90;99.90
14079;DHT22;7115;50.150;8.568;2023-07-31T09:16:21;21.00;99.90
14079;DHT22;7115;50.150;8.568;2023-07-31T09:18:56;21.00;99.90
14079;DHT22;7115;50.150;8.568;2023-07-31T09:21:23;21.10;99.90
14079;DHT22;7115;50.150;8.568;2023-07-31T09:23:50;21.10;99.90
14079;DHT22;7115;50.150;8.568;2023-07-31T09:26:31;21.10;99.90
14079;DHT22;7115;50.150;8.568;2023-07-31T09:28:59;21.10;99.90
14079;DHT22;7115;50.150;8.568;2023-07-31T09:31:33;21.20;99.90
14079;DHT22;7115;50.150;8.568;2023-07-31T09:34:06;21.20;99.90
14079;DHT22;7115;50.150;8.568;2023-07-31T09:36:33;21.20;99.90
14079;DHT22;7115;50.150;8.568;2023-07-31T09:39:08;21.20;99.90
14079;DHT22;7115;50.150;8.568;2023-07-31T09:41:36;21.20;99.90
14079;DHT22;7115;50.150;8.568;2023-07-31T09:44:05;21.20;99.90
14079;DHT22;7115;50.150;8.568;2023-07-31T09:46:35;21.10;99.90
14079;DHT22;7115;50.150;8.568;2023-07-31T09:49:07;21.10;99.90
14079;DHT22;7115;50.150;8.568;2023-07-31T09:51:36;21.00;99.90
14079;DHT22;7115;50.150;8.568;2023-07-31T09:54:12;20.90;99.90
14079;DHT22;7115;50.150;8.568;2023-07-31T09:56:42;20.80;99.90
14079;DHT22;7115;50.150;8.568;2023-07-31T09:59:11;20.80;99.90
14079;DHT22;7115;50.150;8.568;2023-07-31T10:01:40;20.80;99.90
14079;DHT22;7115;50.150;8.568;2023-07-31T10:04:09;20.90;99.90
14079;DHT22;7115;50.150;8.568;2023-07-31T10:06:37;21.00;99.90
14079;DHT22;7115;50.150;8.568;2023-07-31T10:09:06;21.10;99.90
14079;DHT22;7115;50.150;8.568;2023-07-31T10:11:37;21.40;99.90
14079;DHT22;7115;50.150;8.568;2023-07-31T10:14:05;21.30;99.90
14079;DHT22;7115;50.150;8.568;2023-07-31T10:16:35;21.50;99.90
14079;DHT22;7115;50.150;8.568;2023-07-31T10:19:02;21.60;99.90
14079;DHT22;7115;50.150;8.568;2023-07-31T10:21:34;21.60;99.90
14079;DHT22;7115;50.150;8.568;2023-07-31T10:24:03;21.70;99.90
14079;DHT22;7115;50.150;8.568;2023-07-31T10:26:31;21.80;99.90
14079;DHT22;7115;50.150;8.568;2023-07-31T10:28:58;21.80;99.90
14079;DHT22;7115;50.150;8.568;2023-07-31T10:31:27;21.80;99.90
14079;DHT22;7115;50.150;8.568;2023-07-31T10:33:55;21.80;99.90
14079;DHT22;7115;50.150;8.568;2023-07-31T10:36:22;21.80;99.90
14079;DHT22;7115;50.150;8.568;2023-07-31T10:38:51;21.80;99.90
14079;DHT22;7115;50.150;8.568;2023-07-31T10:41:18;21.80;99.90
14079;DHT22;7115;50.150;8.568;2023-07-31T10:43:46;21.90;99.90
14079;DHT22;7115;50.150;8.568;2023-07-31T10:46:13;21.90;99.90
14079;DHT22;7115;50.150;8.568;2023-07-31T10:48:41;21.90;99.90
14079;DHT22;7115;50.150;8.568;2023-07-31T10:51:09;21.90;99.90
14079;DHT22;7115;50.150;8.568;2023-07-31T10:53:39;21.90;99.90
14079;DHT22;7115;50.150;8.568;2023-07-31T10:56:09;21.90;99.90
14079;DHT22;7115;50.150;8.568;2023-07-31T10:58:37;21.90;99.90
14079;DHT22;7115;50.150;8.568;2023-07-31T11:01:05;21.90;99.90
14079;DHT22;7115;50.150;8.568;2023-07-31T11:03:43;22.00;99.90
14079;DHT22;7115;50.150;8.568;2023-07-31T11:06:11;22.10;99.90
14079;DHT22;7115;50.150;8.568;2023-07-31T11:08:44;22.20;99.90
14079;DHT22;7115;50.150;8.568;2023-07-31T11:11:14;22.30;99.90
14079;DHT22;7115;50.150;8.568;2023-07-31T11:13:44;22.40;99.90
14079;DHT22;7115;50.150;8.568;2023-07-31T11:16:12;22.50;99.90
14079;DHT22;7115;50.150;8.568;2023-07-31T11:18:40;22.60;99.90
14079;DHT22;7115;50.150;8.568;2023-07-31T11:21:08;22.60;99.90
14079;DHT22;7115;50.150;8.568;2023-07-31T11:23:37;22.70;99.90
14079;DHT22;7115;50.150;8.568;2023-07-31T11:26:05;22.70;99.90
14079;DHT22;7115;50.150;8.568;2023-07-31T11:28:34;22.80;99.90
14079;DHT22;7115;50.150;8.568;2023-07-31T11:31:02;22.70;99.90
14079;DHT22;7115;50.150;8.568;2023-07-31T11:33:30;22.70;99.90
14079;DHT22;7115;50.150;8.568;2023-07-31T11:35:57;22.70;99.90
14079;DHT22;7115;50.150;8.568;2023-07-31T11:38:25;22.70;99.90
14079;DHT22;7115;50.150;8.568;2023-07-31T11:40:52;22.70;99.90
14079;DHT22;7115;50.150;8.568;2023-07-31T11:43:20;22.60;99.90
14079;DHT22;7115;50.150;8.568;2023-07-31T11:45:50;22.60;99.90
14079;DHT22;7115;50.150;8.568;2023-07-31T11:48:21;22.60;99.90
14079;DHT22;7115;50.150;8.568;2023-07-31T11:50:49;22.60;99.90
14079;DHT22;7115;50.150;8.568;2023-07-31T11:53:19;22.60;99.90
14079;DHT22;7115;50.150;8.568;2023-07-31T11:55:47;22.60;99.80
14079;DHT22;7115;50.150;8.568;2023-07-31T11:58:15;22.60;99.80
14079;DHT22;7115;50.150;8.568;2023-07-31T12:00:43;22.60;99.70
14079;DHT22;7115;50.150;8.568;2023-07-31T12:03:11;22.60;99.60
14079;DHT22;7115;50.150;8.568;2023-07-31T12:05:38;22.60;99.60
14079;DHT22;7115;50.150;8.568;2023-07-31T12:08:09;22.60;99.70
14079;DHT22;7115;50.150;8.568;2023-07-31T12:10:37;22.60;99.70
14079;DHT22;7115;50.150;8.568;2023-07-31T12:13:06;22.60;99.70
14079;DHT22;7115;50.150;8.568;2023-07-31T12:15:34;22.60;99.70
14079;DHT22;7115;50.150;8.568;2023-07-31T12:18:04;22.70;99.70
14079;DHT22;7115;50.150;8.568;2023-07-31T12:20:33;22.70;99.60
14079;DHT22;7115;50.150;8.568;2023-07-31T12:23:01;22.70;99.60
14079;DHT22;7115;50.150;8.568;2023-07-31T12:25:32;22.70;99.70
14079;DHT22;7115;50.150;8.568;2023-07-31T12:28:06;22.70;99.90
14079;DHT22;7115;50.150;8.568;2023-07-31T12:30:39;22.70;99.70
14079;DHT22;7115;50.150;8.568;2023-07-31T12:33:10;22.70;99.70
14079;DHT22;7115;50.150;8.568;2023-07-31T12:35:43;22.80;99.60
14079;DHT22;7115;50.150;8.568;2023-07-31T12:38:11;22.80;99.60
14079;DHT22;7115;50.150;8.568;2023-07-31T12:40:39;22.90;99.50
14079;DHT22;7115;50.150;8.568;2023-07-31T12:43:06;22.90;99.50
14079;DHT22;7115;50.150;8.568;2023-07-31T12:45:33;22.90;99.50
14079;DHT22;7115;50.150;8.568;2023-07-31T12:48:01;22.90;99.50
14079;DHT22;7115;50.150;8.568;2023-07-31T12:50:28;23.00;99.40
14079;DHT22;7115;50.150;8.568;2023-07-31T12:52:56;23.00;99.20
14079;DHT22;7115;50.150;8.568;2023-07-31T12:55:23;23.00;99.30
14079;DHT22;7115;50.150;8.568;2023-07-31T12:57:51;23.10;99.20
14079;DHT22;7115;50.150;8.568;2023-07-31T13:00:19;23.20;99.20
14079;DHT22;7115;50.150;8.568;2023-07-31T13:02:46;23.40;99.10
14079;DHT22;7115;50.150;8.568;2023-07-31T13:05:14;23.50;98.80
14079;DHT22;7115;50.150;8.568;2023-07-31T13:07:41;23.50;98.60
14079;DHT22;7115;50.150;8.568;2023-07-31T13:10:09;23.60;98.50
14079;DHT22;7115;50.150;8.568;2023-07-31T13:12:36;23.60;98.40
14079;DHT22;7115;50.150;8.568;2023-07-31T13:15:04;23.60;98.20
14079;DHT22;7115;50.150;8.568;2023-07-31T13:17:31;23.60;98.10
14079;DHT22;7115;50.150;8.568;2023-07-31T13:19:58;23.60;98.10
14079;DHT22;7115;50.150;8.568;2023-07-31T13:22:27;23.60;98.10
14079;DHT22;7115;50.150;8.568;2023-07-31T13:24:54;23.70;98.20
14079;DHT22;7115;50.150;8.568;2023-07-31T13:27:22;23.70;98.20
14079;DHT22;7115;50.150;8.568;2023-07-31T13:29:49;23.70;98.10
14079;DHT22;7115;50.150;8.568;2023-07-31T13:32:16;23.70;98.10
14079;DHT22;7115;50.150;8.568;2023-07-31T13:34:44;23.80;98.20
14079;DHT22;7115;50.150;8.568;2023-07-31T13:37:11;23.80;98.20
14079;DHT22;7115;50.150;8.568;2023-07-31T13:39:38;23.90;98.20
14079;DHT22;7115;50.150;8.568;2023-07-31T13:42:06;23.90;98.10
14079;DHT22;7115;50.150;8.568;2023-07-31T13:44:40;23.90;97.90
14079;DHT22;7115;50.150;8.568;2023-07-31T13:47:08;23.90;97.90
14079;DHT22;7115;50.150;8.568;2023-07-31T13:49:35;23.90;97.90
14079;DHT22;7115;50.150;8.568;2023-07-31T13:52:03;23.80;97.90
14079;DHT22;7115;50.150;8.568;2023-07-31T13:54:30;23.70;98.00
14079;DHT22;7115;50.150;8.568;2023-07-31T13:56:57;23.60;98.00
14079;DHT22;7115;50.150;8.568;2023-07-31T13:59:24;23.50;98.10
14079;DHT22;7115;50.150;8.568;2023-07-31T14:01:52;23.40;98.10
14079;DHT22;7115;50.150;8.568;2023-07-31T14:04:19;23.40;98.20
14079;DHT22;7115;50.150;8.568;2023-07-31T14:06:46;23.30;98.20
14079;DHT22;7115;50.150;8.568;2023-07-31T14:09:14;23.20;98.30
14079;DHT22;7115;50.150;8.568;2023-07-31T14:11:41;23.10;98.40
14079;DHT22;7115;50.150;8.568;2023-07-31T14:14:09;23.10;98.50
14079;DHT22;7115;50.150;8.568;2023-07-31T14:16:36;23.00;98.50
14079;DHT22;7115;50.150;8.568;2023-07-31T14:19:04;23.00;98.60
14079;DHT22;7115;50.150;8.568;2023-07-31T14:21:31;22.90;98.60
14079;DHT22;7115;50.150;8.568;2023-07-31T14:23:59;22.90;98.80
14079;DHT22;7115;50.150;8.568;2023-07-31T14:26:26;22.90;98.90
14079;DHT22;7115;50.150;8.568;2023-07-31T14:28:53;22.90;98.90
14079;DHT22;7115;50.150;8.568;2023-07-31T14:31:19;22.90;99.00
14079;DHT22;7115;50.150;8.568;2023-07-31T14:33:46;22.80;99.00
14079;DHT22;7115;50.150;8.568;2023-07-31T14:36:15;22.80;99.00
14079;DHT22;7115;50.150;8.568;2023-07-31T14:38:41;22.80;99.40
14079;DHT22;7115;50.150;8.568;2023-07-31T14:41:08;22.80;99.10
14079;DHT22;7115;50.150;8.568;2023-07-31T14:43:35;22.80;99.20
14079;DHT22;7115;50.150;8.568;2023-07-31T14:46:02;22.90;99.60
14079;DHT22;7115;50.150;8.568;2023-07-31T14:48:29;22.90;99.20
14079;DHT22;7115;50.150;8.568;2023-07-31T14:50:56;22.90;99.20
14079;DHT22;7115;50.150;8.568;2023-07-31T14:53:24;23.00;99.20
14079;DHT22;7115;50.150;8.568;2023-07-31T14:55:51;23.10;99.20
14079;DHT22;7115;50.150;8.568;2023-07-31T14:58:18;23.10;99.10
14079;DHT22;7115;50.150;8.568;2023-07-31T15:00:45;23.10;99.10
14079;DHT22;7115;50.150;8.568;2023-07-31T15:03:11;23.00;99.00
14079;DHT22;7115;50.150;8.568;2023-07-31T15:05:38;22.90;99.10
14079;DHT22;7115;50.150;8.568;2023-07-31T15:08:05;22.90;99.10
14079;DHT22;7115;50.150;8.568;2023-07-31T15:10:33;22.80;99.20
14079;DHT22;7115;50.150;8.568;2023-07-31T15:13:00;22.80;99.20
14079;DHT22;7115;50.150;8.568;2023-07-31T15:15:28;22.70;99.30
14079;DHT22;7115;50.150;8.568;2023-07-31T15:17:55;22.60;99.30
14079;DHT22;7115;50.150;8.568;2023-07-31T15:20:23;22.60;99.40
14079;DHT22;7115;50.150;8.568;2023-07-31T15:22:49;22.60;99.50
14079;DHT22;7115;50.150;8.568;2023-07-31T15:25:16;22.50;99.50
14079;DHT22;7115;50.150;8.568;2023-07-31T15:27:45;22.40;99.50
14079;DHT22;7115;50.150;8.568;2023-07-31T15:30:12;22.40;99.60
14079;DHT22;7115;50.150;8.568;2023-07-31T15:32:39;22.40;99.60
14079;DHT22;7115;50.150;8.568;2023-07-31T15:35:06;22.30;99.50
14079;DHT22;7115;50.150;8.568;2023-07-31T15:37:33;22.30;99.60
14079;DHT22;7115;50.150;8.568;2023-07-31T15:40:00;22.20;99.60
14079;DHT22;7115;50.150;8.568;2023-07-31T15:42:27;22.20;99.70
14079;DHT22;7115;50.150;8.568;2023-07-31T15:44:55;22.20;99.70
14079;DHT22;7115;50.150;8.568;2023-07-31T15:47:22;22.10;99.80
14079;DHT22;7115;50.150;8.568;2023-07-31T15:49:49;22.10;99.80
14079;DHT22;7115;50.150;8.568;2023-07-31T15:52:16;22.00;99.80
14079;DHT22;7115;50.150;8.568;2023-07-31T15:54:43;22.00;99.70
14079;DHT22;7115;50.150;8.568;2023-07-31T15:57:09;21.90;99.60
14079;DHT22;7115;50.150;8.568;2023-07-31T15:59:36;21.90;99.60
14079;DHT22;7115;50.150;8.568;2023-07-31T16:02:05;21.80;99.60
14079;DHT22;7115;50.150;8.568;2023-07-31T16:04:33;21.80;99.60
14079;DHT22;7115;50.150;8.568;2023-07-31T16:07:00;21.70;99.80
14079;DHT22;7115;50.150;8.568;2023-07-31T16:09:27;21.60;99.90
14079;DHT22;7115;50.150;8.568;2023-07-31T16:11:54;21.50;99.90
14079;DHT22;7115;50.150;8.568;2023-07-31T16:14:21;21.50;99.90
14079;DHT22;7115;50.150;8.568;2023-07-31T16:16:48;21.50;99.90
14079;DHT22;7115;50.150;8.568;2023-07-31T16:19:19;21.40;99.90
14079;DHT22;7115;50.150;8.568;2023-07-31T16:21:45;21.50;99.90
14079;DHT22;7115;50.150;8.568;2023-07-31T16:24:12;21.50;99.90
14079;DHT22;7115;50.150;8.568;2023-07-31T16:26:39;21.40;99.90
14079;DHT22;7115;50.150;8.568;2023-07-31T16:29:06;21.50;99.90
14079;DHT22;7115;50.150;8.568;2023-07-31T16:31:33;21.50;99.90
14079;DHT22;7115;50.150;8.568;2023-07-31T16:34:21;21.50;99.90
14079;DHT22;7115;50.150;8.568;2023-07-31T16:36:50;21.50;99.90
14079;DHT22;7115;50.150;8.568;2023-07-31T16:39:17;21.60;99.90
14079;DHT22;7115;50.150;8.568;2023-07-31T16:41:44;21.60;99.90
14079;DHT22;7115;50.150;8.568;2023-07-31T16:44:11;21.60;99.90
14079;DHT22;7115;50.150;8.568;2023-07-31T16:46:42;21.60;99.90
14079;DHT22;7115;50.150;8.568;2023-07-31T16:49:09;21.60;99.90
14079;DHT22;7115;50.150;8.568;2023-07-31T16:51:37;21.60;99.90
14079;DHT22;7115;50.150;8.568;2023-07-31T16:54:05;21.60;99.90
14079;DHT22;7115;50.150;8.568;2023-07-31T16:56:31;21.60;99.90
14079;DHT22;7115;50.150;8.568;2023-07-31T16:59:19;21.60;99.90